Great Barrington, Massachusetts
Current Conditions -  °F | °C
As of 2:54 PM on Thursday 18 Dec 2014 (Local Time) from KPSF Reporting Station
Overcast Overcast  
Wind Chill: 22°   Ceiling: 1800
Heat Index: 31°   Visibility: 10mi
Dew Point: 25°   Wind: 12mph
Humidity: 79%   Direction: 280°W
Pressure: 29.84"   Gusts: 21mph
Location:  42.2°N, 73.36°W
Report Text: KPSF 181954Z AUTO 28010G18KT 240V320 10SM OVC018 M01/M04 A2984 RMK AO2 SLP115 T10061039
Loading
Personal Weather Stations






























Interactive Weather Map New forecast layout! Learn more

10-Day Weather Forecast

Advertisements
Track Severe Weather on mobile